createdAt,value
2023-05-17T00:02:03.348Z,17.10
2023-05-17T00:04:29.912Z,17.10
2023-05-17T00:06:56.477Z,17.10
2023-05-17T00:09:23.002Z,17.10
2023-05-17T00:11:49.519Z,17.10
2023-05-17T00:14:16.049Z,17.10
2023-05-17T00:16:42.569Z,17.10
2023-05-17T00:19:09.171Z,17.10
2023-05-17T00:21:35.730Z,17.00
2023-05-17T00:24:07.997Z,17.00
2023-05-17T00:26:34.505Z,17.10
2023-05-17T00:29:01.011Z,17.00
2023-05-17T00:31:27.642Z,17.00
2023-05-17T00:33:54.180Z,17.10
2023-05-17T00:36:20.694Z,17.10
2023-05-17T00:38:47.209Z,17.10
2023-05-17T00:41:13.760Z,17.10
2023-05-17T00:43:40.298Z,17.10
2023-05-17T00:46:06.840Z,17.00
2023-05-17T00:48:33.600Z,17.10
2023-05-17T00:51:00.207Z,17.10
2023-05-17T00:53:26.746Z,17.00
2023-05-17T00:55:53.276Z,17.00
2023-05-17T00:58:19.801Z,17.10
2023-05-17T01:00:46.335Z,17.00
2023-05-17T01:03:12.935Z,17.00
2023-05-17T01:05:39.549Z,17.00
2023-05-17T01:08:06.060Z,17.00
2023-05-17T01:10:32.597Z,17.00
2023-05-17T01:12:59.137Z,17.00
2023-05-17T01:15:25.763Z,17.00
2023-05-17T01:17:52.642Z,17.00
2023-05-17T01:20:19.288Z,17.00
2023-05-17T01:22:56.197Z,16.90
2023-05-17T01:25:26.255Z,17.00
2023-05-17T01:27:52.856Z,17.00
2023-05-17T01:30:19.372Z,17.00
2023-05-17T01:32:50.319Z,17.00
2023-05-17T01:35:16.888Z,17.00
2023-05-17T01:37:43.444Z,16.90
2023-05-17T01:40:09.969Z,16.90
2023-05-17T01:42:36.505Z,17.00
2023-05-17T01:45:03.029Z,17.00
2023-05-17T01:47:29.589Z,17.00
2023-05-17T01:49:56.113Z,16.90
2023-05-17T01:52:22.650Z,17.00
2023-05-17T01:54:49.169Z,16.90
2023-05-17T01:57:15.739Z,16.90
2023-05-17T01:59:42.264Z,17.00
2023-05-17T02:02:08.808Z,16.90
2023-05-17T02:04:35.372Z,16.90
2023-05-17T02:07:01.949Z,16.90
2023-05-17T02:09:28.496Z,16.90
2023-05-17T02:11:55.037Z,16.90
2023-05-17T02:14:21.545Z,16.90
2023-05-17T02:16:48.064Z,17.00
2023-05-17T02:19:14.594Z,17.00
2023-05-17T02:21:41.139Z,16.90
2023-05-17T02:24:07.639Z,16.90
2023-05-17T02:26:34.164Z,16.90
2023-05-17T02:29:00.696Z,16.90
2023-05-17T02:31:27.221Z,16.90
2023-05-17T02:33:53.774Z,16.80
2023-05-17T02:36:20.304Z,16.90
2023-05-17T02:38:46.822Z,16.90
2023-05-17T02:41:13.355Z,16.90
2023-05-17T02:43:39.908Z,16.90
2023-05-17T02:46:06.531Z,16.90
2023-05-17T02:48:33.071Z,16.80
2023-05-17T02:50:59.593Z,16.80
2023-05-17T02:53:26.153Z,16.80
2023-05-17T02:55:52.707Z,16.80
2023-05-17T02:58:20.147Z,16.80
2023-05-17T03:00:46.662Z,16.80
2023-05-17T03:03:13.302Z,16.80
2023-05-17T03:05:39.850Z,16.80
2023-05-17T03:08:06.381Z,16.80
2023-05-17T03:10:32.914Z,16.80
2023-05-17T03:12:59.476Z,16.90
2023-05-17T03:15:26.061Z,16.90
2023-05-17T03:17:52.706Z,16.90
2023-05-17T03:20:19.311Z,16.90
2023-05-17T03:22:46.835Z,16.80
2023-05-17T03:25:13.383Z,16.80
2023-05-17T03:27:39.964Z,16.80
2023-05-17T03:30:06.510Z,16.80
2023-05-17T03:32:38.237Z,16.80
2023-05-17T03:35:04.937Z,16.80
2023-05-17T03:37:31.483Z,16.80
2023-05-17T03:39:58.033Z,16.80
2023-05-17T03:42:24.521Z,16.80
2023-05-17T03:44:51.033Z,16.90
2023-05-17T03:47:17.542Z,16.80
2023-05-17T03:49:44.071Z,16.80
2023-05-17T03:52:10.607Z,16.80
2023-05-17T03:54:37.133Z,16.80
2023-05-17T03:57:03.666Z,16.80
2023-05-17T03:59:30.192Z,16.80
2023-05-17T04:01:56.713Z,16.80
2023-05-17T04:04:23.304Z,16.80
2023-05-17T04:06:49.848Z,16.80
2023-05-17T04:09:16.361Z,16.80
2023-05-17T04:11:42.896Z,16.90
2023-05-17T04:14:09.427Z,16.80
2023-05-17T04:16:35.952Z,16.80
2023-05-17T04:19:08.367Z,16.80
2023-05-17T04:21:35.045Z,16.80
2023-05-17T04:24:02.227Z,16.80
2023-05-17T04:26:28.795Z,16.90
2023-05-17T04:28:55.304Z,16.80
2023-05-17T04:31:21.846Z,16.80
2023-05-17T04:33:48.374Z,16.80
2023-05-17T04:36:14.972Z,16.80
2023-05-17T04:38:41.509Z,16.80
2023-05-17T04:41:08.248Z,16.80
2023-05-17T04:43:34.757Z,16.80
2023-05-17T04:46:01.284Z,16.80
2023-05-17T04:48:27.926Z,16.80
2023-05-17T04:50:54.573Z,16.80
2023-05-17T04:53:21.102Z,16.80
2023-05-17T04:55:47.600Z,16.70
2023-05-17T04:58:14.107Z,16.80
2023-05-17T05:00:40.636Z,16.80
2023-05-17T05:03:07.171Z,16.80
2023-05-17T05:05:33.762Z,16.80
2023-05-17T05:08:00.290Z,16.90
2023-05-17T05:10:26.802Z,16.80
2023-05-17T05:12:53.372Z,16.90
2023-05-17T05:15:19.875Z,16.90
2023-05-17T05:17:46.451Z,16.90
2023-05-17T05:20:13.011Z,16.90
2023-05-17T05:22:39.562Z,17.00
2023-05-17T05:25:06.109Z,17.00
2023-05-17T05:27:32.649Z,16.90
2023-05-17T05:29:59.174Z,16.90
2023-05-17T05:32:26.301Z,16.90
2023-05-17T05:34:52.841Z,16.90
2023-05-17T05:37:19.349Z,16.90
2023-05-17T05:39:45.849Z,16.90
2023-05-17T05:42:12.380Z,16.90
2023-05-17T05:44:38.884Z,16.90
2023-05-17T05:47:08.293Z,16.90
2023-05-17T05:49:34.903Z,16.90
2023-05-17T05:52:01.429Z,16.90
2023-05-17T05:54:27.949Z,16.90
2023-05-17T05:56:54.481Z,16.90
2023-05-17T05:59:21.117Z,16.90
2023-05-17T06:01:47.641Z,16.90
2023-05-17T06:04:14.143Z,16.90
2023-05-17T06:06:40.722Z,16.90
2023-05-17T06:09:07.328Z,17.00
2023-05-17T06:11:38.317Z,17.00
2023-05-17T06:14:08.307Z,17.00
2023-05-17T06:16:34.950Z,17.00
2023-05-17T06:19:01.553Z,17.00
2023-05-17T06:21:28.214Z,16.90
2023-05-17T06:23:56.330Z,16.90
2023-05-17T06:26:22.833Z,17.00
2023-05-17T06:28:49.350Z,17.00
2023-05-17T06:31:15.871Z,17.00
2023-05-17T06:33:42.573Z,17.00
2023-05-17T06:36:09.112Z,17.00
2023-05-17T06:38:35.655Z,17.00
2023-05-17T06:41:02.167Z,17.10
2023-05-17T06:43:28.692Z,17.00
2023-05-17T06:45:55.221Z,17.00
2023-05-17T06:48:22.127Z,17.00
2023-05-17T06:50:48.691Z,16.90
2023-05-17T06:53:15.249Z,17.00
2023-05-17T06:55:41.772Z,17.00
2023-05-17T06:58:08.308Z,17.00
2023-05-17T07:00:34.916Z,17.00
2023-05-17T07:03:01.687Z,17.00
2023-05-17T07:05:28.689Z,17.00
2023-05-17T07:07:55.408Z,17.00
2023-05-17T07:10:21.993Z,17.00
2023-05-17T07:12:48.542Z,17.00
2023-05-17T07:15:15.099Z,17.00
2023-05-17T07:17:41.660Z,17.00
2023-05-17T07:20:08.302Z,17.10
2023-05-17T07:22:34.875Z,17.00
2023-05-17T07:25:01.418Z,16.90
2023-05-17T07:27:27.932Z,17.00
2023-05-17T07:29:54.455Z,17.00
2023-05-17T07:32:20.981Z,17.00
2023-05-17T07:34:47.576Z,17.00
2023-05-17T07:37:14.097Z,17.00
2023-05-17T07:39:40.635Z,17.00
2023-05-17T07:42:07.205Z,17.00
2023-05-17T07:44:33.746Z,17.00
2023-05-17T07:47:00.376Z,17.00
2023-05-17T07:49:27.070Z,17.00
2023-05-17T07:51:53.678Z,17.10
2023-05-17T07:54:20.406Z,17.10
2023-05-17T07:56:50.413Z,17.10
2023-05-17T07:59:20.432Z,17.00
2023-05-17T08:01:46.965Z,17.00
2023-05-17T08:04:13.699Z,17.10
2023-05-17T08:06:40.307Z,17.10
2023-05-17T08:09:06.814Z,17.00
2023-05-17T08:11:34.958Z,17.10
2023-05-17T08:14:01.746Z,17.10
2023-05-17T08:16:28.302Z,17.00
2023-05-17T08:18:54.984Z,17.00
2023-05-17T08:21:21.663Z,17.00
2023-05-17T08:23:50.385Z,17.00
2023-05-17T08:26:16.901Z,17.00
2023-05-17T08:28:43.405Z,17.10
2023-05-17T08:31:10.241Z,17.00
2023-05-17T08:33:36.854Z,17.10
2023-05-17T08:36:03.485Z,17.00
2023-05-17T08:38:30.014Z,17.00
2023-05-17T08:40:56.532Z,17.00
2023-05-17T08:43:24.227Z,17.00
2023-05-17T08:45:52.449Z,17.00
2023-05-17T08:48:19.018Z,17.00
2023-05-17T08:50:45.587Z,17.00
2023-05-17T08:53:12.177Z,17.00
2023-05-17T08:55:38.757Z,17.00
2023-05-17T08:58:05.287Z,17.00
2023-05-17T09:00:31.822Z,17.10
2023-05-17T09:02:58.397Z,17.10
2023-05-17T09:05:25.016Z,17.00
2023-05-17T09:07:51.583Z,17.00
2023-05-17T09:10:18.100Z,17.10
2023-05-17T09:12:44.642Z,17.10
2023-05-17T09:15:11.163Z,17.10
2023-05-17T09:17:37.784Z,17.10
2023-05-17T09:20:04.503Z,17.10
2023-05-17T09:22:31.083Z,17.10
2023-05-17T09:24:57.602Z,17.10
2023-05-17T09:27:24.144Z,17.10
2023-05-17T09:29:50.672Z,17.10
2023-05-17T09:32:17.227Z,17.10
2023-05-17T09:34:43.783Z,17.10
2023-05-17T09:37:10.321Z,17.10
2023-05-17T09:39:36.855Z,17.10
2023-05-17T09:42:03.402Z,17.10
2023-05-17T09:44:29.931Z,17.10
2023-05-17T09:46:56.486Z,17.10
2023-05-17T09:49:23.009Z,17.20
2023-05-17T09:51:49.521Z,17.10
2023-05-17T09:54:16.057Z,17.10
2023-05-17T09:56:42.591Z,17.10
2023-05-17T09:59:09.092Z,17.10
2023-05-17T10:01:35.627Z,17.10
2023-05-17T10:04:02.282Z,17.10
2023-05-17T10:08:59.647Z,17.10
2023-05-17T10:11:26.174Z,17.10
2023-05-17T10:13:52.702Z,17.10
2023-05-17T10:16:19.765Z,17.10
2023-05-17T10:18:46.376Z,17.10
2023-05-17T10:21:13.035Z,17.10
2023-05-17T10:23:39.633Z,17.20
2023-05-17T10:26:06.150Z,17.10
2023-05-17T10:28:32.672Z,17.10
2023-05-17T10:30:59.202Z,17.10
2023-05-17T10:33:25.843Z,17.20
2023-05-17T10:35:52.445Z,17.10
2023-05-17T10:38:20.442Z,17.10
2023-05-17T10:40:47.050Z,17.10
2023-05-17T10:43:13.602Z,17.10
2023-05-17T10:45:40.108Z,17.10
2023-05-17T10:48:08.602Z,17.10
2023-05-17T10:50:35.165Z,17.10
2023-05-17T10:53:01.696Z,17.10
2023-05-17T10:55:28.417Z,17.10
2023-05-17T10:57:55.120Z,17.10
2023-05-17T11:00:21.858Z,17.20
2023-05-17T11:02:49.235Z,17.10
2023-05-17T11:05:16.072Z,17.10
2023-05-17T11:07:42.752Z,17.10
2023-05-17T11:10:09.252Z,17.10
2023-05-17T11:12:37.338Z,17.10
2023-05-17T11:15:08.304Z,17.10
2023-05-17T11:17:35.162Z,17.20
2023-05-17T11:20:01.953Z,17.10
2023-05-17T11:22:28.790Z,17.10
2023-05-17T11:24:55.337Z,17.10
2023-05-17T11:27:26.562Z,17.20
2023-05-17T11:29:53.092Z,17.20
2023-05-17T11:32:19.606Z,17.10
2023-05-17T11:34:46.143Z,17.20
2023-05-17T11:37:12.656Z,17.10
2023-05-17T11:39:39.194Z,17.20
2023-05-17T11:42:05.750Z,17.20
2023-05-17T11:44:32.522Z,17.20
2023-05-17T11:46:59.121Z,17.20
2023-05-17T11:49:34.942Z,17.20
2023-05-17T11:52:03.063Z,17.20
2023-05-17T11:54:29.610Z,17.20
2023-05-17T11:57:08.158Z,17.20
2023-05-17T11:59:34.678Z,17.20
2023-05-17T12:02:01.184Z,17.20
2023-05-17T12:04:33.275Z,17.20
2023-05-17T12:06:59.938Z,17.20
2023-05-17T12:09:26.487Z,17.20
2023-05-17T12:11:53.050Z,17.20
2023-05-17T12:14:19.568Z,17.20
2023-05-17T12:16:46.122Z,17.20
2023-05-17T12:19:12.847Z,17.20
2023-05-17T12:21:44.611Z,17.20
2023-05-17T12:24:11.160Z,17.20
2023-05-17T12:26:37.703Z,17.20
2023-05-17T12:29:04.238Z,17.20
2023-05-17T12:31:30.754Z,17.20
2023-05-17T12:33:57.307Z,17.20
2023-05-17T12:36:23.848Z,17.20
2023-05-17T12:38:50.374Z,17.20
2023-05-17T12:41:16.895Z,17.20
2023-05-17T12:43:43.416Z,17.20
2023-05-17T12:46:09.928Z,17.20
2023-05-17T12:48:36.473Z,17.30
2023-05-17T12:51:03.059Z,17.20
2023-05-17T12:53:29.588Z,17.20
2023-05-17T12:55:56.097Z,17.30
2023-05-17T12:58:22.630Z,17.20
2023-05-17T13:00:50.650Z,17.30
2023-05-17T13:03:17.259Z,17.30
2023-05-17T13:05:43.813Z,17.30
2023-05-17T13:08:10.358Z,17.30
2023-05-17T13:10:36.866Z,17.30
2023-05-17T13:13:03.414Z,17.30
2023-05-17T13:15:29.935Z,17.30
2023-05-17T13:17:56.590Z,17.30
2023-05-17T13:20:23.192Z,17.30
2023-05-17T13:22:49.746Z,17.30
2023-05-17T13:25:16.279Z,17.30
2023-05-17T13:27:42.836Z,17.30
2023-05-17T13:30:09.380Z,17.30
2023-05-17T13:32:35.991Z,17.30
2023-05-17T13:35:02.580Z,17.30
2023-05-17T13:37:29.120Z,17.30
2023-05-17T13:39:55.630Z,17.30
2023-05-17T13:42:22.150Z,17.30
2023-05-17T13:44:48.663Z,17.30
2023-05-17T13:47:15.190Z,17.30
2023-05-17T13:49:41.726Z,17.30
2023-05-17T13:52:08.247Z,17.30
2023-05-17T13:54:34.822Z,17.30
2023-05-17T13:57:01.354Z,17.30
2023-05-17T13:59:27.894Z,17.30
2023-05-17T14:01:54.461Z,17.30
2023-05-17T14:04:20.977Z,17.30
2023-05-17T14:06:49.207Z,17.30
2023-05-17T14:09:16.386Z,17.30
2023-05-17T14:11:42.924Z,17.30
2023-05-17T14:14:09.466Z,17.30
2023-05-17T14:16:35.995Z,17.30
2023-05-17T14:19:04.800Z,17.40
2023-05-17T14:21:31.640Z,17.30
2023-05-17T14:23:58.198Z,17.30
2023-05-17T14:26:24.707Z,17.30
2023-05-17T14:28:51.247Z,17.30
2023-05-17T14:31:17.760Z,17.40
2023-05-17T14:33:44.308Z,17.40
2023-05-17T14:36:13.781Z,17.40
2023-05-17T14:38:40.649Z,17.40
2023-05-17T14:41:07.179Z,17.40
2023-05-17T14:43:33.718Z,17.40
2023-05-17T14:46:00.381Z,17.40
2023-05-17T14:48:26.948Z,17.40
2023-05-17T14:50:53.470Z,17.40
2023-05-17T14:53:20.007Z,17.40
2023-05-17T14:55:46.552Z,17.40
2023-05-17T14:58:13.094Z,17.40
2023-05-17T15:00:39.623Z,17.40
2023-05-17T15:03:06.279Z,17.40
2023-05-17T15:05:33.173Z,17.40
2023-05-17T15:07:59.899Z,17.40
2023-05-17T15:10:26.426Z,17.40
2023-05-17T15:12:56.788Z,17.40
2023-05-17T15:15:23.302Z,17.50
2023-05-17T15:17:50.819Z,17.40
2023-05-17T15:20:17.407Z,17.40
2023-05-17T15:22:44.768Z,17.40
2023-05-17T15:25:11.276Z,17.40
2023-05-17T15:27:37.788Z,17.50
2023-05-17T15:30:04.387Z,17.40
2023-05-17T15:32:32.812Z,17.40
2023-05-17T15:34:59.414Z,17.40
2023-05-17T15:37:25.951Z,17.50
2023-05-17T15:39:52.504Z,17.40
2023-05-17T15:42:19.021Z,17.40
2023-05-17T15:44:45.545Z,17.40
2023-05-17T15:47:12.064Z,17.50
2023-05-17T15:49:38.612Z,17.50
2023-05-17T15:52:05.135Z,17.50
2023-05-17T15:54:31.671Z,17.50
2023-05-17T15:56:58.184Z,17.50
2023-05-17T15:59:24.726Z,17.50
2023-05-17T16:01:51.235Z,17.50
2023-05-17T16:04:17.777Z,17.50
2023-05-17T16:06:44.451Z,17.60
2023-05-17T16:09:11.024Z,17.60
2023-05-17T16:11:37.519Z,17.60
2023-05-17T16:14:08.825Z,17.60
2023-05-17T16:16:35.323Z,17.60
2023-05-17T16:19:02.881Z,17.60
2023-05-17T16:21:29.454Z,17.60
2023-05-17T16:23:55.975Z,17.60
2023-05-17T16:26:22.496Z,17.60
2023-05-17T16:28:49.045Z,17.60
2023-05-17T16:31:15.591Z,17.50
2023-05-17T16:33:42.191Z,17.60
2023-05-17T16:36:08.745Z,17.50
2023-05-17T16:38:35.323Z,17.60
2023-05-17T16:41:01.864Z,17.60
2023-05-17T16:43:32.937Z,17.60
2023-05-17T16:45:59.546Z,17.60
2023-05-17T16:48:26.126Z,17.60
2023-05-17T16:50:52.997Z,17.60
2023-05-17T16:53:19.549Z,17.60
2023-05-17T16:55:46.058Z,17.60
2023-05-17T16:58:12.559Z,17.60
2023-05-17T17:00:39.105Z,17.60
2023-05-17T17:03:09.016Z,17.60
2023-05-17T17:05:36.230Z,17.60
2023-05-17T17:08:02.749Z,17.60
2023-05-17T17:10:29.629Z,17.60
2023-05-17T17:12:56.428Z,17.60
2023-05-17T17:15:22.990Z,17.50
2023-05-17T17:17:49.576Z,17.50
2023-05-17T17:20:16.140Z,17.50
2023-05-17T17:22:42.667Z,17.60
2023-05-17T17:25:09.200Z,17.50
2023-05-17T17:27:35.740Z,17.50
2023-05-17T17:30:02.262Z,17.50
2023-05-17T17:32:28.908Z,17.50
2023-05-17T17:34:55.539Z,17.50
2023-05-17T17:37:22.091Z,17.50
2023-05-17T17:39:48.623Z,17.60
2023-05-17T17:42:15.174Z,17.50
2023-05-17T17:44:41.699Z,17.50
2023-05-17T17:47:08.350Z,17.50
2023-05-17T17:49:34.974Z,17.50
2023-05-17T17:52:02.932Z,17.50
2023-05-17T17:54:29.467Z,17.50
2023-05-17T17:56:55.996Z,17.50
2023-05-17T17:59:22.506Z,17.50
2023-05-17T18:01:49.068Z,17.50
2023-05-17T18:04:15.634Z,17.50
2023-05-17T18:06:44.931Z,17.50
2023-05-17T18:09:11.456Z,17.50
2023-05-17T18:11:38.020Z,17.50
2023-05-17T18:14:04.691Z,17.50
2023-05-17T18:16:31.268Z,17.50
2023-05-17T18:18:57.905Z,17.50
2023-05-17T18:21:24.466Z,17.40
2023-05-17T18:23:51.117Z,17.40
2023-05-17T18:26:17.648Z,17.40
2023-05-17T18:28:44.185Z,17.40
2023-05-17T18:31:10.776Z,17.40
2023-05-17T18:33:37.338Z,17.40
2023-05-17T18:36:08.964Z,17.40
2023-05-17T18:38:35.574Z,17.40
2023-05-17T18:41:02.378Z,17.40
2023-05-17T18:43:28.948Z,17.40
2023-05-17T18:45:55.477Z,17.50
2023-05-17T18:48:22.004Z,17.40
2023-05-17T18:50:48.513Z,17.40
2023-05-17T18:53:15.124Z,17.40
2023-05-17T18:55:41.639Z,17.40
2023-05-17T18:58:08.166Z,17.40
2023-05-17T19:00:34.720Z,17.40
2023-05-17T19:03:01.365Z,17.40
2023-05-17T19:05:32.977Z,17.40
2023-05-17T19:07:59.488Z,17.40
2023-05-17T19:10:26.014Z,17.40
2023-05-17T19:12:52.538Z,17.40
2023-05-17T19:15:19.078Z,17.40
2023-05-17T19:17:45.716Z,17.40
2023-05-17T19:20:12.368Z,17.40
2023-05-17T19:22:38.884Z,17.40
2023-05-17T19:25:05.449Z,17.40
2023-05-17T19:27:31.958Z,17.40
2023-05-17T19:29:58.494Z,17.40
2023-05-17T19:32:25.038Z,17.40
2023-05-17T19:34:51.583Z,17.40
2023-05-17T19:37:18.082Z,17.40
2023-05-17T19:39:44.589Z,17.30
2023-05-17T19:42:11.083Z,17.30
2023-05-17T19:44:38.999Z,17.30
2023-05-17T19:47:05.516Z,17.30
2023-05-17T19:49:32.036Z,17.40
2023-05-17T19:51:58.545Z,17.30
2023-05-17T19:54:25.072Z,17.30
2023-05-17T19:56:51.647Z,17.30
2023-05-17T19:59:18.184Z,17.30
2023-05-17T20:01:44.749Z,17.30
2023-05-17T20:04:11.407Z,17.30
2023-05-17T20:06:39.039Z,17.30
2023-05-17T20:09:05.576Z,17.30
2023-05-17T20:11:32.141Z,17.30
2023-05-17T20:13:58.691Z,17.30
2023-05-17T20:16:25.352Z,17.30
2023-05-17T20:18:51.962Z,17.30
2023-05-17T20:21:18.519Z,17.20
2023-05-17T20:23:45.027Z,17.20
2023-05-17T20:26:11.557Z,17.30
2023-05-17T20:28:38.084Z,17.20
2023-05-17T20:31:04.602Z,17.30
2023-05-17T20:33:31.107Z,17.20
2023-05-17T20:35:57.634Z,17.20
2023-05-17T20:38:24.144Z,17.20
2023-05-17T20:40:50.665Z,17.20
2023-05-17T20:43:17.176Z,17.30
2023-05-17T20:45:43.782Z,17.20
2023-05-17T20:48:10.440Z,17.20
2023-05-17T20:50:37.049Z,17.20
2023-05-17T20:53:03.656Z,17.10
2023-05-17T20:55:30.195Z,17.20
2023-05-17T20:57:56.761Z,17.20
2023-05-17T21:00:23.277Z,17.20
2023-05-17T21:02:49.932Z,17.10
2023-05-17T21:05:16.491Z,17.20
2023-05-17T21:07:43.027Z,17.10
2023-05-17T21:10:09.573Z,17.10
2023-05-17T21:12:36.153Z,17.10
2023-05-17T21:15:15.860Z,17.10
2023-05-17T21:17:43.840Z,17.10
2023-05-17T21:20:10.463Z,17.10
2023-05-17T21:22:36.985Z,17.10
2023-05-17T21:25:03.486Z,17.10
2023-05-17T21:27:30.001Z,17.10
2023-05-17T21:29:57.064Z,17.10
2023-05-17T21:32:23.647Z,17.10
2023-05-17T21:34:52.143Z,17.10
2023-05-17T21:37:19.445Z,17.10
2023-05-17T21:39:46.000Z,17.10
2023-05-17T21:42:15.111Z,17.00
2023-05-17T21:44:41.652Z,17.00
2023-05-17T21:47:08.258Z,17.00
2023-05-17T21:49:34.874Z,17.00
2023-05-17T21:52:01.383Z,17.10
2023-05-17T21:54:27.925Z,17.00
2023-05-17T21:56:54.435Z,17.00
2023-05-17T21:59:20.964Z,17.00
2023-05-17T22:01:47.541Z,17.00
2023-05-17T22:04:14.110Z,17.00
2023-05-17T22:06:40.618Z,17.00
2023-05-17T22:09:07.148Z,17.00
2023-05-17T22:11:33.655Z,17.00
2023-05-17T22:14:03.131Z,17.00
2023-05-17T22:16:29.771Z,16.90
2023-05-17T22:18:56.428Z,17.00
2023-05-17T22:21:22.983Z,16.90
2023-05-17T22:23:51.123Z,16.90
2023-05-17T22:26:17.668Z,17.00
2023-05-17T22:28:44.199Z,16.90
2023-05-17T22:31:10.772Z,16.90
2023-05-17T22:33:37.309Z,16.90
2023-05-17T22:36:03.864Z,17.00
2023-05-17T22:38:30.382Z,17.00
2023-05-17T22:40:56.941Z,16.90
2023-05-17T22:43:23.473Z,16.90
2023-05-17T22:45:50.020Z,16.90
2023-05-17T22:48:16.635Z,16.90
2023-05-17T22:50:43.269Z,16.90
2023-05-17T22:53:09.765Z,16.90
2023-05-17T22:55:36.281Z,16.90
2023-05-17T22:58:02.808Z,16.90
2023-05-17T23:00:30.436Z,16.90
2023-05-17T23:02:57.070Z,16.90
2023-05-17T23:05:23.612Z,16.90
2023-05-17T23:07:50.135Z,16.80
2023-05-17T23:10:16.676Z,16.90
2023-05-17T23:12:43.213Z,16.80
2023-05-17T23:15:09.769Z,16.80
2023-05-17T23:17:36.443Z,16.80
2023-05-17T23:20:03.100Z,16.80
2023-05-17T23:22:29.635Z,16.80
2023-05-17T23:24:56.161Z,16.80
2023-05-17T23:27:22.692Z,16.80
2023-05-17T23:29:49.241Z,16.80
2023-05-17T23:32:15.808Z,16.70
2023-05-17T23:34:42.329Z,16.80
2023-05-17T23:37:08.912Z,16.70
2023-05-17T23:39:35.451Z,16.70
2023-05-17T23:42:02.015Z,16.70
2023-05-17T23:44:28.540Z,16.80
2023-05-17T23:46:55.094Z,16.70
2023-05-17T23:49:21.609Z,16.70
2023-05-17T23:51:48.161Z,16.80
2023-05-17T23:54:15.176Z,16.70
2023-05-17T23:56:41.726Z,16.70
2023-05-17T23:59:08.248Z,16.70
